createdAt,value
2022-10-23T00:00:39.181Z,27.85
2022-10-23T00:03:05.843Z,25.83
2022-10-23T00:05:32.357Z,30.25
2022-10-23T00:07:59.823Z,38.92
2022-10-23T00:10:27.784Z,30.83
2022-10-23T00:12:54.782Z,24.05
2022-10-23T00:15:22.550Z,24.05
2022-10-23T00:17:49.144Z,15.25
2022-10-23T00:20:16.650Z,14.90
2022-10-23T00:22:43.162Z,27.05
2022-10-23T00:25:10.810Z,34.38
2022-10-23T00:27:37.497Z,30.67
2022-10-23T00:30:05.616Z,26.42
2022-10-23T00:35:03.963Z,30.38
2022-10-23T00:37:30.502Z,45.88
2022-10-23T00:39:57.274Z,36.05
2022-10-23T00:42:24.245Z,32.75
2022-10-23T00:44:50.680Z,36.17
2022-10-23T00:47:17.425Z,46.47
2022-10-23T00:49:44.021Z,27.40
2022-10-23T00:52:12.315Z,35.90
2022-10-23T00:54:43.151Z,31.88
2022-10-23T00:57:13.221Z,27.45
2022-10-23T00:59:41.755Z,23.73
2022-10-23T01:02:08.446Z,40.90
2022-10-23T01:04:36.078Z,30.05
2022-10-23T01:07:14.137Z,29.30
2022-10-23T01:09:48.143Z,25.60
2022-10-23T01:12:29.648Z,42.97
2022-10-23T01:15:06.769Z,38.58
2022-10-23T01:17:47.609Z,19.95
2022-10-23T01:20:27.142Z,21.10
2022-10-23T01:23:23.348Z,22.10
2022-10-23T01:25:59.910Z,27.02
2022-10-23T01:28:31.020Z,22.27
2022-10-23T01:31:00.156Z,32.58
2022-10-23T01:33:42.699Z,45.63
2022-10-23T01:36:15.796Z,38.83
2022-10-23T01:38:51.614Z,29.52
2022-10-23T01:41:30.512Z,38.25
2022-10-23T01:44:12.614Z,36.22
2022-10-23T01:46:39.951Z,40.70
2022-10-23T01:49:11.348Z,25.02
2022-10-23T01:51:38.840Z,34.00
2022-10-23T01:54:10.656Z,38.75
2022-10-23T01:56:39.530Z,30.63
2022-10-23T01:59:09.785Z,31.65
2022-10-23T02:01:42.248Z,20.42
2022-10-23T02:04:11.371Z,30.05
2022-10-23T02:06:37.962Z,17.83
2022-10-23T02:09:05.781Z,29.90
2022-10-23T02:11:37.179Z,36.03
2022-10-23T02:14:28.631Z,24.73
2022-10-23T02:16:58.457Z,23.58
2022-10-23T02:19:31.005Z,31.55
2022-10-23T02:22:27.920Z,26.30
2022-10-23T02:24:59.890Z,28.50
2022-10-23T02:27:50.787Z,28.30
2022-10-23T02:30:19.950Z,20.10
2022-10-23T02:32:57.717Z,46.53
2022-10-23T02:35:24.929Z,25.35
2022-10-23T02:38:01.369Z,17.75
2022-10-23T02:40:39.187Z,20.38
2022-10-23T02:43:14.584Z,17.40
2022-10-23T02:46:06.285Z,15.63
2022-10-23T02:48:39.157Z,27.70
2022-10-23T02:51:22.748Z,25.83
2022-10-23T02:53:54.041Z,19.40
2022-10-23T02:56:44.465Z,16.98
2022-10-23T02:59:34.533Z,26.17
2022-10-23T03:02:07.217Z,34.33
2022-10-23T03:04:38.748Z,27.33
2022-10-23T03:07:05.356Z,21.27
2022-10-23T03:09:31.891Z,28.67
2022-10-23T03:11:58.392Z,27.92
2022-10-23T03:14:24.909Z,38.95
2022-10-23T03:16:51.456Z,19.63
2022-10-23T03:19:17.980Z,33.88
2022-10-23T03:21:44.568Z,36.45
2022-10-23T03:24:11.091Z,32.92
2022-10-23T03:26:41.765Z,34.63
2022-10-23T03:29:08.441Z,23.27
2022-10-23T03:31:41.072Z,28.77
2022-10-23T03:34:11.106Z,32.10
2022-10-23T03:36:39.896Z,21.65
2022-10-23T03:39:07.950Z,34.33
2022-10-23T03:41:34.505Z,28.90
2022-10-23T03:44:01.250Z,38.78
2022-10-23T03:46:27.832Z,43.67
2022-10-23T03:48:56.785Z,33.03
2022-10-23T03:51:23.294Z,38.17
2022-10-23T03:53:49.843Z,29.40
2022-10-23T03:56:16.587Z,42.15
2022-10-23T03:58:44.862Z,41.55
2022-10-23T04:01:12.921Z,50.10
2022-10-23T04:03:39.476Z,38.15
2022-10-23T04:06:06.393Z,32.85
2022-10-23T04:08:32.918Z,43.60
2022-10-23T04:10:59.653Z,42.75
2022-10-23T04:13:34.989Z,30.85
2022-10-23T04:16:01.870Z,51.80
2022-10-23T04:18:28.360Z,48.60
2022-10-23T04:20:55.150Z,36.53
2022-10-23T04:23:21.751Z,36.47
2022-10-23T04:28:24.055Z,35.17
2022-10-23T04:30:50.665Z,45.53
2022-10-23T04:33:17.304Z,39.30
2022-10-23T04:35:43.929Z,43.15
2022-10-23T04:38:11.286Z,34.88
2022-10-23T04:40:38.121Z,47.60
2022-10-23T04:43:05.069Z,47.10
2022-10-23T04:45:35.900Z,47.30
2022-10-23T04:48:02.429Z,41.63
2022-10-23T04:50:38.355Z,31.73
2022-10-23T04:53:28.781Z,34.63
2022-10-23T04:56:14.940Z,36.00
2022-10-23T04:58:51.384Z,40.30
2022-10-23T05:01:18.492Z,52.03
2022-10-23T05:03:45.145Z,38.20
2022-10-23T05:06:12.523Z,30.10
2022-10-23T05:08:47.051Z,44.65
2022-10-23T05:11:22.204Z,31.90
2022-10-23T05:13:50.451Z,31.73
2022-10-23T05:16:37.868Z,37.15
2022-10-23T05:19:06.416Z,50.03
2022-10-23T05:21:35.323Z,36.38
2022-10-23T05:24:05.369Z,29.05
2022-10-23T05:26:32.536Z,49.03
2022-10-23T05:29:04.566Z,35.35
2022-10-23T05:31:32.017Z,34.33
2022-10-23T05:34:05.636Z,45.80
2022-10-23T05:36:34.877Z,42.72
2022-10-23T05:39:02.162Z,43.70
2022-10-23T05:41:28.746Z,41.05
2022-10-23T05:43:58.261Z,46.63
2022-10-23T05:46:43.828Z,41.60
2022-10-23T05:49:28.069Z,38.72
2022-10-23T05:52:13.155Z,48.42
2022-10-23T05:54:57.721Z,51.30
2022-10-23T05:57:48.353Z,29.52
2022-10-23T06:00:19.382Z,30.23
2022-10-23T06:02:55.008Z,40.17
2022-10-23T06:05:33.779Z,42.65
2022-10-23T06:08:16.538Z,37.78
2022-10-23T06:10:43.692Z,36.90
2022-10-23T06:13:11.556Z,28.55
2022-10-23T06:15:38.298Z,23.85
2022-10-23T06:18:10.172Z,35.35
2022-10-23T06:20:47.130Z,36.00
2022-10-23T06:23:22.209Z,36.75
2022-10-23T06:26:05.735Z,36.10
2022-10-23T06:28:40.396Z,32.55
2022-10-23T06:31:09.790Z,30.23
2022-10-23T06:33:36.477Z,35.53
2022-10-23T06:36:05.489Z,28.48
2022-10-23T06:38:37.449Z,31.05
2022-10-23T06:41:04.803Z,35.05
2022-10-23T06:43:36.006Z,36.17
2022-10-23T06:46:19.773Z,36.05
2022-10-23T06:49:09.285Z,34.47
2022-10-23T06:51:44.172Z,38.92
2022-10-23T06:54:13.155Z,33.92
2022-10-23T06:56:48.600Z,40.08
2022-10-23T06:59:19.483Z,43.35
2022-10-23T07:01:48.849Z,32.60
2022-10-23T07:04:15.608Z,37.88
2022-10-23T07:06:43.518Z,32.45
2022-10-23T07:09:10.653Z,34.47
2022-10-23T07:11:52.108Z,34.45
2022-10-23T07:14:21.190Z,33.97
2022-10-23T07:16:47.725Z,31.38
2022-10-23T07:19:14.340Z,33.88
2022-10-23T07:21:55.540Z,31.33
2022-10-23T07:24:44.776Z,39.05
2022-10-23T07:27:19.687Z,41.35
2022-10-23T07:29:53.647Z,32.60
2022-10-23T07:32:20.293Z,35.60
2022-10-23T07:35:06.153Z,31.65
2022-10-23T07:37:34.391Z,27.75
2022-10-23T07:40:04.483Z,29.10
2022-10-23T07:42:35.406Z,43.42
2022-10-23T07:45:04.305Z,28.02
2022-10-23T07:47:32.506Z,37.83
2022-10-23T07:50:00.709Z,27.88
2022-10-23T07:52:30.830Z,30.17
2022-10-23T07:55:20.364Z,31.58
2022-10-23T07:57:54.422Z,33.47
2022-10-23T08:00:34.635Z,27.15
2022-10-23T08:03:12.734Z,26.73
2022-10-23T08:05:39.459Z,32.67
2022-10-23T08:08:06.030Z,23.42
2022-10-23T08:10:33.166Z,24.73
2022-10-23T08:12:59.956Z,24.60
2022-10-23T08:15:56.628Z,27.80
2022-10-23T08:18:45.249Z,24.50
2022-10-23T08:21:12.107Z,32.47
2022-10-23T08:23:38.848Z,23.45
2022-10-23T08:26:06.482Z,25.30
2022-10-23T08:28:33.337Z,22.95
2022-10-23T08:31:16.174Z,29.48
2022-10-23T08:33:56.016Z,27.73
2022-10-23T08:36:27.474Z,23.02
2022-10-23T08:38:55.566Z,23.88
2022-10-23T08:41:32.277Z,20.23
2022-10-23T08:44:21.605Z,15.80
2022-10-23T08:47:13.004Z,22.98
2022-10-23T08:50:15.124Z,23.48
2022-10-23T08:52:47.931Z,18.58
2022-10-23T08:55:27.807Z,23.73
2022-10-23T08:57:58.793Z,18.20
2022-10-23T09:00:25.409Z,19.05
2022-10-23T09:02:53.346Z,21.95
2022-10-23T09:05:27.357Z,20.02
2022-10-23T09:08:12.618Z,19.05
2022-10-23T09:10:51.667Z,19.15
2022-10-23T09:13:38.086Z,19.65
2022-10-23T09:16:10.881Z,15.60
2022-10-23T09:18:39.346Z,23.87
2022-10-23T09:21:09.412Z,24.80
2022-10-23T09:23:36.416Z,18.92
2022-10-23T09:26:10.897Z,16.58
2022-10-23T09:28:45.710Z,21.98
2022-10-23T09:31:12.763Z,17.60
2022-10-23T09:33:39.720Z,15.23
2022-10-23T09:36:13.741Z,13.98
2022-10-23T09:38:46.279Z,17.02
2022-10-23T09:41:29.658Z,25.83
2022-10-23T09:44:15.797Z,16.27
2022-10-23T09:46:52.178Z,16.73
2022-10-23T09:49:19.905Z,13.30
2022-10-23T09:52:09.573Z,14.48
2022-10-23T09:54:47.900Z,15.27
2022-10-23T09:57:40.681Z,14.30
2022-10-23T10:00:16.696Z,18.20
2022-10-23T10:02:54.580Z,17.60
2022-10-23T10:05:43.993Z,13.68
2022-10-23T10:08:32.553Z,16.40
2022-10-23T10:11:09.810Z,20.48
2022-10-23T10:13:52.374Z,23.73
2022-10-23T10:19:30.119Z,15.15
2022-10-23T10:22:40.261Z,18.13
2022-10-23T10:25:36.586Z,17.27
2022-10-23T10:28:54.770Z,11.60
2022-10-23T10:31:39.281Z,14.20
2022-10-23T10:34:15.012Z,10.95
2022-10-23T10:36:48.132Z,16.75
2022-10-23T10:39:23.167Z,15.40
2022-10-23T10:41:55.925Z,15.07
2022-10-23T10:44:40.698Z,16.17
2022-10-23T10:47:23.218Z,12.20
2022-10-23T10:50:03.263Z,14.52
2022-10-23T10:53:03.558Z,11.48
2022-10-23T10:55:34.000Z,12.65
2022-10-23T10:58:08.625Z,14.10
2022-10-23T11:00:35.508Z,10.88
2022-10-23T11:03:39.851Z,13.70
2022-10-23T11:06:13.045Z,12.40
2022-10-23T11:08:50.183Z,16.60
2022-10-23T11:11:29.189Z,10.48
2022-10-23T11:13:55.730Z,11.07
2022-10-23T11:16:26.706Z,12.35
2022-10-23T11:19:03.445Z,13.82
2022-10-23T11:21:56.171Z,11.70
2022-10-23T11:24:46.741Z,13.13
2022-10-23T11:27:42.088Z,13.07
2022-10-23T11:30:48.675Z,12.00
2022-10-23T11:33:54.510Z,13.10
2022-10-23T11:36:41.233Z,14.05
2022-10-23T11:39:17.678Z,12.00
2022-10-23T11:41:53.703Z,19.90
2022-10-23T11:44:38.363Z,11.70
2022-10-23T11:47:26.076Z,13.75
2022-10-23T11:50:07.751Z,8.68
2022-10-23T11:52:41.996Z,15.10
2022-10-23T11:55:24.227Z,11.07
2022-10-23T11:58:07.263Z,13.90
2022-10-23T12:00:35.593Z,12.68
2022-10-23T12:03:02.452Z,16.52
2022-10-23T12:05:35.517Z,10.55
2022-10-23T12:08:04.126Z,16.02
2022-10-23T12:10:34.302Z,15.38
2022-10-23T12:13:04.149Z,15.07
2022-10-23T12:15:31.825Z,11.52
2022-10-23T12:18:15.561Z,12.98
2022-10-23T12:20:45.367Z,11.30
2022-10-23T12:23:41.237Z,10.15
2022-10-23T12:26:37.749Z,9.40
2022-10-23T12:29:04.151Z,9.32
2022-10-23T12:31:51.785Z,16.30
2022-10-23T12:34:28.199Z,12.30
2022-10-23T12:37:12.833Z,9.85
2022-10-23T12:39:40.206Z,11.27
2022-10-23T12:42:16.045Z,12.85
2022-10-23T12:44:42.702Z,11.43
2022-10-23T12:47:15.593Z,5.60
2022-10-23T12:49:48.649Z,12.55
2022-10-23T12:52:17.534Z,8.70
2022-10-23T12:54:44.125Z,7.90
2022-10-23T12:57:25.888Z,13.35
2022-10-23T12:59:58.451Z,8.60
2022-10-23T13:02:31.576Z,8.88
2022-10-23T13:05:03.314Z,9.30
2022-10-23T13:07:32.291Z,12.57
2022-10-23T13:10:02.569Z,9.00
2022-10-23T13:12:36.049Z,9.32
2022-10-23T13:15:14.662Z,11.05
2022-10-23T13:17:46.789Z,10.32
2022-10-23T13:20:28.637Z,13.60
2022-10-23T13:23:01.894Z,13.30
2022-10-23T13:25:31.155Z,12.50
2022-10-23T13:28:12.830Z,13.98
2022-10-23T13:30:46.108Z,16.50
2022-10-23T13:33:23.164Z,14.73
2022-10-23T13:36:16.578Z,12.48
2022-10-23T13:38:58.506Z,10.13
2022-10-23T13:41:26.254Z,9.90
2022-10-23T13:43:52.799Z,8.35
2022-10-23T13:46:25.529Z,14.48
2022-10-23T13:48:52.117Z,11.33
2022-10-23T13:51:25.807Z,8.00
2022-10-23T13:53:54.047Z,9.45
2022-10-23T13:56:21.992Z,10.45
2022-10-23T13:58:49.025Z,8.68
2022-10-23T14:01:19.163Z,13.73
2022-10-23T14:03:45.844Z,14.55
2022-10-23T14:06:12.345Z,11.60
2022-10-23T14:08:38.862Z,10.05
2022-10-23T14:11:05.486Z,10.23
2022-10-23T14:13:32.039Z,10.77
2022-10-23T14:15:58.530Z,10.40
2022-10-23T14:18:25.079Z,9.98
2022-10-23T14:20:51.591Z,7.10
2022-10-23T14:23:18.124Z,7.75
2022-10-23T14:25:44.621Z,6.90
2022-10-23T14:28:11.178Z,14.80
2022-10-23T14:30:37.721Z,10.25
2022-10-23T14:33:04.694Z,13.90
2022-10-23T14:35:31.222Z,16.17
2022-10-23T14:37:58.533Z,9.27
2022-10-23T14:40:25.399Z,10.07
2022-10-23T14:42:51.926Z,7.18
2022-10-23T14:45:18.538Z,7.85
2022-10-23T14:47:46.253Z,12.73
2022-10-23T14:50:13.882Z,9.48
2022-10-23T14:52:40.459Z,10.93
2022-10-23T14:55:07.374Z,9.27
2022-10-23T14:57:34.041Z,10.23
2022-10-23T15:00:00.552Z,11.68
2022-10-23T15:02:27.041Z,9.30
2022-10-23T15:04:53.544Z,7.70
2022-10-23T15:07:20.021Z,9.75
2022-10-23T15:09:46.601Z,12.50
2022-10-23T15:12:13.145Z,11.45
2022-10-23T15:14:39.632Z,21.52
2022-10-23T15:17:06.216Z,9.80
2022-10-23T15:19:32.722Z,7.35
2022-10-23T15:21:59.246Z,9.68
2022-10-23T15:24:26.577Z,13.27
2022-10-23T15:26:53.073Z,8.00
2022-10-23T15:29:19.867Z,13.35
2022-10-23T15:31:54.667Z,7.95
2022-10-23T15:34:23.746Z,8.05
2022-10-23T15:36:50.634Z,7.38
2022-10-23T15:39:20.387Z,8.27
2022-10-23T15:41:47.501Z,8.65
2022-10-23T15:44:16.799Z,13.18
2022-10-23T15:46:43.650Z,7.57
2022-10-23T15:49:10.309Z,7.43
2022-10-23T15:51:38.491Z,7.63
2022-10-23T15:54:11.488Z,14.60
2022-10-23T15:56:37.971Z,7.07
2022-10-23T15:59:04.480Z,9.25
2022-10-23T16:01:31.175Z,8.57
2022-10-23T16:03:57.749Z,12.70
2022-10-23T16:06:24.395Z,7.15
2022-10-23T16:08:50.997Z,13.68
2022-10-23T16:11:23.236Z,10.57
2022-10-23T16:13:50.077Z,10.85
2022-10-23T16:16:17.703Z,12.82
2022-10-23T16:18:44.586Z,10.02
2022-10-23T16:21:25.901Z,8.73
2022-10-23T16:23:53.883Z,7.72
2022-10-23T16:26:20.870Z,12.20
2022-10-23T16:28:47.548Z,11.50
2022-10-23T16:31:20.534Z,17.25
2022-10-23T16:33:50.732Z,9.50
2022-10-23T16:36:18.369Z,11.80
2022-10-23T16:39:16.017Z,5.65
2022-10-23T16:42:00.956Z,6.95
2022-10-23T16:44:38.199Z,10.25
2022-10-23T16:47:06.029Z,8.60
2022-10-23T16:49:32.598Z,11.50
2022-10-23T16:51:59.123Z,9.35
2022-10-23T16:54:25.662Z,8.63
2022-10-23T16:56:52.181Z,12.25
2022-10-23T16:59:18.742Z,9.07
2022-10-23T17:01:45.434Z,13.88
2022-10-23T17:04:12.101Z,12.57
2022-10-23T17:06:38.800Z,11.25
2022-10-23T17:09:05.823Z,9.88
2022-10-23T17:11:35.566Z,12.57
2022-10-23T17:14:05.298Z,12.40
2022-10-23T17:16:41.514Z,10.60
2022-10-23T17:19:20.636Z,13.70
2022-10-23T17:21:47.737Z,12.25
2022-10-23T17:24:14.270Z,9.77
2022-10-23T17:26:40.918Z,7.43
2022-10-23T17:29:09.323Z,12.80
2022-10-23T17:31:38.016Z,13.65
2022-10-23T17:34:06.890Z,11.65
2022-10-23T17:36:36.195Z,15.15
2022-10-23T17:39:06.381Z,10.95
2022-10-23T17:41:32.901Z,14.32
2022-10-23T17:44:00.091Z,12.93
2022-10-23T17:46:27.510Z,14.32
2022-10-23T17:48:56.952Z,10.48
2022-10-23T17:51:25.569Z,7.93
2022-10-23T17:53:54.154Z,6.18
2022-10-23T17:56:26.241Z,12.07
2022-10-23T17:58:54.319Z,14.02
2022-10-23T18:01:25.033Z,11.25
2022-10-23T18:03:52.622Z,10.10
2022-10-23T18:06:28.869Z,12.93
2022-10-23T18:08:56.654Z,15.02
2022-10-23T18:11:25.806Z,12.63
2022-10-23T18:13:52.704Z,13.45
2022-10-23T18:16:19.633Z,13.52
2022-10-23T18:18:51.701Z,10.93
2022-10-23T18:21:20.454Z,10.82
2022-10-23T18:23:47.017Z,18.80
2022-10-23T18:26:18.699Z,11.60
2022-10-23T18:28:46.400Z,12.43
2022-10-23T18:31:13.738Z,10.68
2022-10-23T18:33:40.853Z,10.30
2022-10-23T18:36:21.288Z,5.93
2022-10-23T18:38:48.310Z,8.45
2022-10-23T18:41:15.283Z,9.93
2022-10-23T18:43:44.329Z,12.00
2022-10-23T18:46:14.910Z,11.73
2022-10-23T18:48:42.311Z,10.35
2022-10-23T18:51:16.637Z,9.13
2022-10-23T18:53:46.585Z,6.53
2022-10-23T18:56:22.200Z,9.38
2022-10-23T18:58:50.494Z,13.60
2022-10-23T19:01:18.210Z,6.20
2022-10-23T19:03:45.062Z,12.68
2022-10-23T19:06:11.819Z,9.88
2022-10-23T19:08:39.584Z,10.77
2022-10-23T19:11:07.344Z,13.70
2022-10-23T19:13:38.962Z,7.18
2022-10-23T19:16:50.034Z,7.90
2022-10-23T19:19:22.094Z,9.68
2022-10-23T19:21:49.419Z,10.95
2022-10-23T19:24:24.262Z,13.13
2022-10-23T19:26:50.967Z,11.90
2022-10-23T19:29:20.477Z,9.80
2022-10-23T19:31:49.197Z,7.88
2022-10-23T19:34:19.746Z,10.52
2022-10-23T19:36:47.597Z,9.77
2022-10-23T19:39:14.125Z,9.95
2022-10-23T19:41:40.660Z,9.48
2022-10-23T19:44:07.188Z,7.53
2022-10-23T19:46:37.617Z,8.43
2022-10-23T19:49:05.305Z,9.55
2022-10-23T19:51:32.190Z,19.08
2022-10-23T19:53:58.738Z,14.18
2022-10-23T19:56:25.331Z,8.07
2022-10-23T19:58:52.326Z,12.82
2022-10-23T20:01:22.209Z,10.35
2022-10-23T20:03:49.008Z,8.68
2022-10-23T20:06:22.365Z,6.85
2022-10-23T20:08:49.191Z,10.57
2022-10-23T20:11:28.157Z,12.85
2022-10-23T20:13:55.526Z,9.02
2022-10-23T20:16:27.226Z,7.80
2022-10-23T20:18:53.867Z,9.80
2022-10-23T20:21:20.678Z,9.05
2022-10-23T20:23:47.256Z,11.60
2022-10-23T20:26:16.248Z,13.02
2022-10-23T20:28:46.894Z,10.93
2022-10-23T20:31:15.419Z,13.07
2022-10-23T20:33:42.066Z,9.02
2022-10-23T20:36:21.082Z,8.80
2022-10-23T20:38:47.575Z,17.55
2022-10-23T20:41:14.129Z,8.10
2022-10-23T20:43:40.630Z,10.07
2022-10-23T20:46:09.158Z,8.27
2022-10-23T20:48:36.957Z,10.20
2022-10-23T20:51:09.358Z,11.82
2022-10-23T20:53:36.937Z,12.52
2022-10-23T20:56:13.580Z,8.85
2022-10-23T20:58:40.508Z,11.75
2022-10-23T21:01:10.338Z,12.48
2022-10-23T21:03:37.690Z,6.47
2022-10-23T21:06:06.137Z,8.15
2022-10-23T21:08:32.731Z,12.48
2022-10-23T21:10:59.386Z,11.35
2022-10-23T21:13:26.066Z,14.35
2022-10-23T21:15:53.107Z,6.05
2022-10-23T21:18:27.458Z,8.20
2022-10-23T21:21:06.527Z,9.77
2022-10-23T21:23:33.044Z,11.02
2022-10-23T21:26:04.707Z,7.10
2022-10-23T21:28:33.951Z,9.10
2022-10-23T21:31:08.050Z,11.48
2022-10-23T21:33:36.173Z,18.35
2022-10-23T21:36:14.274Z,6.80
2022-10-23T21:38:40.822Z,8.18
2022-10-23T21:41:09.043Z,12.05
2022-10-23T21:43:35.733Z,12.98
2022-10-23T21:46:06.893Z,7.90
2022-10-23T21:48:33.412Z,12.68
2022-10-23T21:51:00.215Z,6.88
2022-10-23T21:53:27.232Z,8.02
2022-10-23T21:55:54.330Z,9.23
2022-10-23T21:58:20.868Z,8.80
2022-10-23T22:00:48.409Z,13.75
2022-10-23T22:03:14.906Z,7.70
2022-10-23T22:05:41.412Z,8.45
2022-10-23T22:08:07.925Z,11.48
2022-10-23T22:10:35.153Z,8.27
2022-10-23T22:13:01.663Z,10.90
2022-10-23T22:15:28.267Z,9.27
2022-10-23T22:17:54.794Z,6.43
2022-10-23T22:20:21.317Z,12.30
2022-10-23T22:22:47.869Z,16.40
2022-10-23T22:25:14.386Z,8.75
2022-10-23T22:27:41.043Z,12.88
2022-10-23T22:30:07.827Z,10.95
2022-10-23T22:32:35.164Z,11.10
2022-10-23T22:35:01.692Z,12.02
2022-10-23T22:37:28.286Z,9.98
2022-10-23T22:39:54.814Z,8.88
2022-10-23T22:42:21.373Z,9.32
2022-10-23T22:44:47.908Z,9.07
2022-10-23T22:47:14.457Z,9.50
2022-10-23T22:49:41.890Z,7.10
2022-10-23T22:52:08.422Z,8.88
2022-10-23T22:54:34.952Z,9.02
2022-10-23T22:57:01.502Z,7.07
2022-10-23T22:59:28.105Z,8.13
2022-10-23T23:01:54.838Z,9.90
2022-10-23T23:04:38.149Z,7.38
2022-10-23T23:09:37.820Z,9.13
2022-10-23T23:12:04.736Z,8.85
2022-10-23T23:14:31.289Z,7.60
2022-10-23T23:16:57.851Z,6.60
2022-10-23T23:19:26.511Z,6.13
2022-10-23T23:21:57.321Z,11.20
2022-10-23T23:24:24.457Z,8.18
2022-10-23T23:26:51.238Z,10.07
2022-10-23T23:29:18.107Z,5.30
2022-10-23T23:31:45.018Z,7.22
2022-10-23T23:34:11.599Z,8.77
2022-10-23T23:36:38.170Z,4.65
2022-10-23T23:41:36.294Z,9.38
2022-10-23T23:44:02.860Z,6.35
2022-10-23T23:46:29.473Z,11.23
2022-10-23T23:48:55.991Z,6.97
2022-10-23T23:51:24.170Z,7.68
2022-10-23T23:53:51.438Z,7.30
2022-10-23T23:56:18.665Z,5.47
2022-10-23T23:58:45.285Z,6.55
